Loup City, Nebraska
Current Conditions -  °F | °C
As of 6:53 PM on Tuesday 21 Oct 2014 (Local Time) from KODX Reporting Station
Clear Clear  
Wind Chill: 69°   Ceiling: Unl
Heat Index: 69°   Visibility: 10mi
Dew Point: 50°   Wind: 10mph
Humidity: 51%   Direction: 140°SE
Pressure: 29.92"   Gusts: NA
Location:  41.28°N, 98.97°W
Report Text: KODX 212353Z AUTO 14009KT 10SM CLR 21/10 A2992 RMK AO2 SLP136 T02060100 10244 20206 56007
Loading
Personal Weather Stations






























Interactive Weather Map
Tropical Storm Tracking
New forecast layout! Learn more

10-Day Weather Forecast

Advertisements
Track Severe Weather on mobile